Time;durP1;ratioP1;P1;durP2;ratioP2;P2;SDS_P1;SDS_P2;PMS_P1;PMS_P2;Temp;Humidity;BMP_temperature;BMP_pressure;BME280_temperature;BME280_humidity;BME280_pressure;Samples;Min_cycle;Max_cycle;Signal;HPM_P1;HPM_P2
2021/12/26 00:00:10;;;;;;;5.30;4.15;;;1.60;60.80;;;;;;5089522;28;20032;-53
2021/12/26 00:02:36;;;;;;;5.90;4.55;;;1.60;60.70;;;;;;5094703;28;20031;-56
2021/12/26 00:05:02;;;;;;;6.22;4.82;;;1.60;60.70;;;;;;5089715;28;20017;-56
2021/12/26 00:07:28;;;;;;;5.45;4.30;;;1.60;61.00;;;;;;5094622;28;20047;-55
2021/12/26 00:09:53;;;;;;;5.38;4.07;;;1.60;60.80;;;;;;5094428;28;20492;-53
2021/12/26 00:12:19;;;;;;;5.05;4.35;;;1.60;61.00;;;;;;5094121;28;20031;-55
2021/12/26 00:14:45;;;;;;;5.20;4.00;;;1.60;61.10;;;;;;5084602;28;20033;-56
2021/12/26 00:17:10;;;;;;;4.95;4.10;;;1.60;60.60;;;;;;5084988;28;20020;-54
2021/12/26 00:19:36;;;;;;;5.47;4.05;;;1.60;60.90;;;;;;5078257;28;20016;-56
2021/12/26 00:22:02;;;;;;;5.63;4.53;;;1.60;61.90;;;;;;5088060;28;20028;-56
2021/12/26 00:24:27;;;;;;;4.32;3.78;;;1.60;61.30;;;;;;5092893;28;20051;-52
2021/12/26 00:26:53;;;;;;;6.60;4.35;;;1.60;61.10;;;;;;5093455;28;20123;-53
2021/12/26 00:29:19;;;;;;;7.30;4.75;;;1.60;60.90;;;;;;5091799;28;20030;-56
2021/12/26 00:31:44;;;;;;;7.15;5.20;;;1.60;60.80;;;;;;5079775;28;20032;-53
2021/12/26 00:34:10;;;;;;;6.50;4.75;;;1.60;60.80;;;;;;5078904;28;20020;-57
2021/12/26 00:36:36;;;;;;;5.82;4.85;;;1.70;60.70;;;;;;5082081;28;20027;-55
2021/12/26 00:39:02;;;;;;;7.32;5.38;;;1.70;60.60;;;;;;5090388;28;20582;-57
2021/12/26 00:41:28;;;;;;;7.25;5.28;;;1.70;60.30;;;;;;5093220;28;20052;-55
2021/12/26 00:43:54;;;;;;;7.63;5.88;;;1.70;60.30;;;;;;5093106;28;20101;-52
2021/12/26 00:46:20;;;;;;;9.32;5.85;;;1.70;60.40;;;;;;5093510;28;20024;-53
2021/12/26 00:48:46;;;;;;;9.02;7.13;;;1.70;60.40;;;;;;5087669;28;20166;-57
2021/12/26 00:51:12;;;;;;;8.43;6.57;;;1.70;60.30;;;;;;5079906;28;20033;-52
2021/12/26 00:53:38;;;;;;;11.35;8.07;;;1.70;60.30;;;;;;5072880;28;20016;-56
2021/12/26 00:56:04;;;;;;;13.60;9.20;;;1.70;60.20;;;;;;5087157;28;20024;-55
2021/12/26 00:58:29;;;;;;;12.52;9.30;;;1.70;60.10;;;;;;5082871;28;20460;-56
2021/12/26 01:00:55;;;;;;;11.93;9.18;;;1.70;60.20;;;;;;5092111;28;20116;-56
2021/12/26 01:03:22;;;;;;;14.57;10.05;;;1.80;60.30;;;;;;5082245;28;20020;-56
2021/12/26 01:05:52;;;;;;;16.70;11.30;;;1.80;60.20;;;;;;5072451;28;20040;-56
2021/12/26 01:08:20;;;;;;;15.27;10.10;;;1.70;60.00;;;;;;5074930;28;20091;-54
2021/12/26 01:10:51;;;;;;;11.73;7.68;;;1.70;60.20;;;;;;5073019;28;20043;-54
2021/12/26 01:13:26;;;;;;;9.30;6.18;;;1.70;60.00;;;;;;5083378;28;20375;-53
2021/12/26 01:15:55;;;;;;;9.43;5.97;;;1.70;60.00;;;;;;5092717;28;20028;-57
2021/12/26 01:18:21;;;;;;;7.78;5.97;;;1.70;60.00;;;;;;5081540;28;20020;-55
2021/12/26 01:21:00;;;;;;;7.43;5.57;;;1.70;60.10;;;;;;5085032;28;20054;-57
2021/12/26 01:23:27;;;;;;;9.50;5.93;;;1.70;60.10;;;;;;5042424;28;1194109;-53
2021/12/26 01:25:53;;;;;;;8.77;5.68;;;1.70;60.00;;;;;;5074057;28;20039;-55
2021/12/26 01:28:21;;;;;;;7.85;5.60;;;1.70;60.00;;;;;;5074276;28;20032;-56
2021/12/26 01:30:48;;;;;;;7.68;5.63;;;1.70;60.00;;;;;;5086446;28;20028;-56
2021/12/26 01:33:15;;;;;;;8.75;5.82;;;1.70;60.00;;;;;;5093452;28;20111;-53
2021/12/26 01:35:41;;;;;;;5.85;5.22;;;1.70;59.90;;;;;;5092359;28;20073;-56
2021/12/26 01:38:13;;;;;;;10.02;6.28;;;1.60;60.00;;;;;;5088475;28;20115;-54
2021/12/26 01:40:41;;;;;;;7.47;5.90;;;1.60;60.00;;;;;;5082292;28;20146;-54
2021/12/26 01:43:07;;;;;;;7.47;5.53;;;1.60;60.10;;;;;;5073780;28;20543;-53
2021/12/26 01:45:32;;;;;;;8.55;5.43;;;1.60;60.20;;;;;;5073909;28;20107;-54
2021/12/26 01:48:04;;;;;;;8.05;6.25;;;1.60;60.10;;;;;;5090983;28;20024;-53
2021/12/26 01:50:31;;;;;;;8.32;5.82;;;1.60;60.10;;;;;;5091220;28;20059;-56
2021/12/26 01:52:56;;;;;;;7.22;5.25;;;1.60;60.10;;;;;;5091022;28;20028;-54
2021/12/26 01:55:37;;;;;;;7.28;5.55;;;1.60;60.30;;;;;;5079125;28;20051;-56
2021/12/26 01:58:05;;;;;;;7.32;4.70;;;1.60;60.20;;;;;;5075685;28;20348;-53
2021/12/26 02:00:31;;;;;;;7.15;5.07;;;1.50;60.20;;;;;;5072891;28;20055;-56
2021/12/26 02:02:56;;;;;;;7.20;6.10;;;1.50;60.20;;;;;;5073692;28;20033;-52
2021/12/26 02:05:22;;;;;;;8.80;6.75;;;1.50;60.10;;;;;;5092480;28;20028;-56
2021/12/26 02:07:48;;;;;;;9.63;7.28;;;1.50;60.20;;;;;;5092322;28;20074;-57
2021/12/26 02:10:14;;;;;;;9.15;7.22;;;1.50;60.30;;;;;;5079999;28;20032;-55
2021/12/26 02:12:40;;;;;;;8.70;6.82;;;1.50;60.30;;;;;;5095544;28;20115;-54
2021/12/26 02:15:07;;;;;;;8.40;6.22;;;1.50;60.30;;;;;;5078079;28;20032;-53
2021/12/26 02:17:32;;;;;;;9.18;5.57;;;1.50;60.60;;;;;;5076386;28;20044;-56
2021/12/26 02:20:27;;;;;;;6.93;5.47;;;1.50;60.50;;;;;;5085013;28;20059;-56
2021/12/26 02:22:58;;;;;;;7.10;5.45;;;1.50;60.40;;;;;;5077124;28;20439;-54
2021/12/26 02:27:49;;;;;;;8.88;5.65;;;1.40;60.40;;;;;;5077739;28;20033;-57
2021/12/26 02:30:16;;;;;;;8.90;5.43;;;1.40;60.60;;;;;;5084390;28;20032;-56
2021/12/26 02:32:46;;;;;;;14.13;6.22;;;1.40;60.60;;;;;;5076494;28;20369;-56
2021/12/26 02:35:12;;;;;;;12.50;6.18;;;1.40;60.70;;;;;;5075927;28;20373;-54
2021/12/26 02:37:38;;;;;;;8.00;5.88;;;1.40;60.80;;;;;;5090974;28;20517;-55
2021/12/26 02:40:04;;;;;;;8.02;6.03;;;1.40;60.70;;;;;;5096121;28;20028;-56
2021/12/26 02:42:30;;;;;;;9.70;5.85;;;1.40;60.70;;;;;;5090154;28;20480;-53
2021/12/26 02:44:56;;;;;;;8.10;5.93;;;1.40;60.70;;;;;;5095973;28;20081;-53
2021/12/26 02:47:31;;;;;;;9.52;5.40;;;1.40;60.70;;;;;;5089992;28;20043;-54
2021/12/26 02:50:03;;;;;;;6.97;5.50;;;1.40;60.60;;;;;;5079560;28;20031;-56
2021/12/26 02:52:29;;;;;;;6.78;5.13;;;1.40;60.70;;;;;;5075697;28;20024;-54
2021/12/26 02:54:58;;;;;;;7.35;5.22;;;1.30;60.60;;;;;;5076829;28;20032;-56
2021/12/26 02:57:23;;;;;;;8.15;4.68;;;1.30;60.70;;;;;;5091241;28;20039;-54
2021/12/26 02:59:49;;;;;;;6.63;4.53;;;1.30;60.80;;;;;;5095725;28;20024;-53
2021/12/26 03:02:15;;;;;;;6.78;4.60;;;1.30;60.80;;;;;;5094629;28;20085;-55
2021/12/26 03:04:40;;;;;;;6.78;4.53;;;1.30;60.80;;;;;;5087353;28;20036;-54
2021/12/26 03:07:06;;;;;;;7.47;4.82;;;1.30;61.50;;;;;;5075310;28;20047;-57
2021/12/26 03:09:41;;;;;;;5.60;4.13;;;1.30;61.00;;;;;;5075376;28;20028;-57
2021/12/26 03:12:07;;;;;;;5.57;4.53;;;1.20;60.90;;;;;;5089648;28;20085;-56
2021/12/26 03:14:33;;;;;;;7.95;4.57;;;1.30;60.90;;;;;;5075535;28;20024;-56
2021/12/26 03:17:00;;;;;;;6.72;4.20;;;1.20;60.90;;;;;;5075072;28;20638;-53
2021/12/26 03:19:26;;;;;;;5.68;4.30;;;1.20;61.10;;;;;;5079411;28;20449;-54
2021/12/26 03:21:52;;;;;;;7.20;4.15;;;1.20;61.10;;;;;;5083976;28;20074;-54
2021/12/26 03:24:18;;;;;;;5.13;4.15;;;1.20;61.10;;;;;;5078692;28;20064;-53
2021/12/26 03:26:44;;;;;;;6.10;4.70;;;1.20;61.00;;;;;;5083848;28;20115;-55
2021/12/26 03:29:09;;;;;;;6.03;4.53;;;1.20;61.10;;;;;;5075044;28;20033;-52
2021/12/26 03:31:35;;;;;;;7.10;5.20;;;1.20;61.40;;;;;;5074980;28;20027;-54
2021/12/26 03:34:03;;;;;;;6.32;4.75;;;1.20;61.50;;;;;;5075082;28;20107;-55
2021/12/26 03:36:28;;;;;;;8.40;5.57;;;1.20;61.50;;;;;;5076512;28;20077;-56
2021/12/26 03:38:54;;;;;;;9.73;5.55;;;1.20;61.70;;;;;;5075913;28;20095;-54
2021/12/26 03:41:20;;;;;;;8.20;5.30;;;1.20;61.40;;;;;;5094939;28;20493;-55
2021/12/26 03:43:46;;;;;;;7.90;6.07;;;1.20;61.60;;;;;;5092914;28;20040;-56
2021/12/26 03:46:11;;;;;;;7.32;5.40;;;1.20;61.60;;;;;;5074765;28;20048;-56
2021/12/26 03:48:37;;;;;;;8.27;5.93;;;1.20;61.60;;;;;;5074593;28;20032;-54
2021/12/26 03:51:04;;;;;;;10.50;5.85;;;1.10;61.40;;;;;;5075606;28;20449;-54
2021/12/26 03:53:30;;;;;;;6.10;4.93;;;1.10;61.50;;;;;;5089450;28;20036;-55
2021/12/26 03:55:56;;;;;;;7.50;5.40;;;1.10;61.50;;;;;;5076494;28;20395;-55
2021/12/26 03:58:22;;;;;;;8.70;5.88;;;1.00;61.40;;;;;;5074333;28;20025;-55
2021/12/26 04:00:49;;;;;;;10.73;5.35;;;1.00;61.50;;;;;;5082391;28;20128;-55
2021/12/26 04:03:15;;;;;;;7.93;5.47;;;1.00;61.60;;;;;;5082380;28;20024;-52
2021/12/26 04:05:41;;;;;;;8.57;5.78;;;0.90;61.60;;;;;;5094812;28;20060;-56
2021/12/26 04:08:07;;;;;;;8.00;5.55;;;0.90;61.60;;;;;;5094636;28;20063;-53
2021/12/26 04:10:33;;;;;;;8.07;5.55;;;0.90;61.60;;;;;;5079422;28;20056;-57
2021/12/26 04:12:59;;;;;;;9.63;5.47;;;0.80;61.70;;;;;;5074063;28;20028;-56
2021/12/26 04:15:26;;;;;;;7.18;5.25;;;0.80;61.70;;;;;;5085984;28;20024;-54
2021/12/26 04:17:54;;;;;;;10.35;6.10;;;0.70;62.30;;;;;;5076537;28;20030;-56
2021/12/26 04:20:22;;;;;;;10.90;5.72;;;0.70;61.70;;;;;;5084449;28;20024;-56
2021/12/26 04:22:49;;;;;;;7.90;5.07;;;0.70;61.80;;;;;;5080241;28;20100;-56
2021/12/26 04:25:14;;;;;;;8.20;5.47;;;0.70;61.80;;;;;;5090461;28;20024;-55
2021/12/26 04:27:40;;;;;;;7.72;5.38;;;0.60;61.80;;;;;;5073941;28;20031;-52
2021/12/26 04:30:09;;;;;;;7.15;5.35;;;0.60;61.90;;;;;;5073903;28;20017;-54
2021/12/26 04:32:35;;;;;;;8.23;5.85;;;0.60;62.00;;;;;;5074089;28;20035;-53
2021/12/26 04:35:01;;;;;;;6.30;4.82;;;0.50;61.90;;;;;;5088440;28;20372;-54
2021/12/26 04:37:26;;;;;;;8.00;5.57;;;0.50;62.10;;;;;;5094136;28;20022;-54
2021/12/26 04:39:52;;;;;;;7.53;5.47;;;0.50;62.10;;;;;;5094197;28;20052;-52
2021/12/26 04:42:18;;;;;;;7.05;4.90;;;0.40;62.10;;;;;;5086202;28;20056;-52
2021/12/26 04:44:44;;;;;;;6.57;5.25;;;0.50;62.30;;;;;;5074042;28;20350;-54
2021/12/26 04:47:09;;;;;;;6.97;5.28;;;0.40;62.20;;;;;;5073969;28;20055;-55
2021/12/26 04:49:35;;;;;;;8.98;6.20;;;0.40;62.30;;;;;;5074202;28;20070;-56
2021/12/26 04:52:01;;;;;;;9.93;6.97;;;0.30;62.30;;;;;;5090011;28;20476;-54
2021/12/26 04:54:27;;;;;;;8.68;6.80;;;0.30;62.30;;;;;;5076487;28;20029;-56
2021/12/26 04:56:52;;;;;;;9.70;7.93;;;0.30;62.50;;;;;;5073660;28;20433;-55
2021/12/26 04:59:18;;;;;;;10.75;8.35;;;0.20;62.40;;;;;;5076687;28;20032;-56
2021/12/26 05:01:43;;;;;;;9.82;7.47;;;0.20;62.50;;;;;;5073499;28;20029;-52
2021/12/26 05:04:10;;;;;;;10.48;7.05;;;0.20;62.60;;;;;;5073472;28;20040;-55
2021/12/26 05:06:36;;;;;;;9.32;8.10;;;0.20;62.70;;;;;;5093219;28;20028;-55
2021/12/26 05:09:02;;;;;;;9.63;6.57;;;0.20;62.80;;;;;;5090343;28;20466;-53
2021/12/26 05:11:28;;;;;;;9.65;6.55;;;0.20;62.80;;;;;;5089425;28;20020;-56
2021/12/26 05:13:54;;;;;;;8.20;5.88;;;0.30;62.80;;;;;;5092524;28;20196;-57
2021/12/26 05:16:20;;;;;;;10.98;6.70;;;0.30;62.60;;;;;;5081635;28;20032;-54
2021/12/26 05:18:46;;;;;;;9.48;6.07;;;0.30;62.50;;;;;;5083589;28;20024;-55
2021/12/26 05:21:11;;;;;;;9.25;6.63;;;0.30;62.60;;;;;;5082696;28;20020;-56
2021/12/26 05:23:37;;;;;;;9.48;6.70;;;0.30;62.50;;;;;;5089100;28;20049;-57
2021/12/26 05:26:03;;;;;;;9.02;6.47;;;0.30;63.10;;;;;;5076164;28;20028;-56
2021/12/26 05:28:28;;;;;;;11.35;6.78;;;0.30;62.40;;;;;;5090613;28;20043;-53
2021/12/26 05:30:54;;;;;;;8.43;6.10;;;0.30;62.50;;;;;;5092370;28;20119;-55
2021/12/26 05:33:20;;;;;;;8.40;6.25;;;0.30;62.40;;;;;;5076979;28;20025;-54
2021/12/26 05:35:46;;;;;;;8.48;6.22;;;0.30;62.30;;;;;;5073544;28;20025;-52
2021/12/26 05:38:11;;;;;;;9.40;6.30;;;0.30;62.30;;;;;;5073303;28;20020;-52
2021/12/26 05:40:37;;;;;;;10.52;6.47;;;0.30;62.30;;;;;;5090082;28;20375;-54
2021/12/26 05:43:03;;;;;;;11.02;7.47;;;0.30;62.20;;;;;;5090272;28;20063;-54
2021/12/26 05:45:28;;;;;;;11.80;6.93;;;0.30;62.20;;;;;;5089408;28;20172;-56
2021/12/26 05:47:54;;;;;;;8.32;6.47;;;0.30;62.20;;;;;;5088153;28;20039;-56
2021/12/26 05:50:21;;;;;;;8.82;6.20;;;0.30;62.10;;;;;;5076916;28;20059;-53
2021/12/26 05:52:48;;;;;;;10.70;6.47;;;0.30;62.00;;;;;;5076793;28;20021;-53
2021/12/26 05:55:14;;;;;;;10.98;7.03;;;0.30;61.90;;;;;;5095497;28;20565;-56
2021/12/26 05:57:40;;;;;;;11.57;7.60;;;0.30;61.90;;;;;;5097091;28;20480;-57
2021/12/26 06:00:08;;;;;;;11.75;7.90;;;0.30;62.10;;;;;;5094042;28;20056;-57
2021/12/26 06:02:34;;;;;;;12.35;7.95;;;0.30;62.00;;;;;;5089522;28;20062;-56
2021/12/26 06:05:00;;;;;;;16.23;9.38;;;0.30;62.10;;;;;;5087919;28;20056;-56
2021/12/26 06:07:26;;;;;;;13.52;8.70;;;0.30;62.00;;;;;;5076477;28;20032;-53
2021/12/26 06:09:52;;;;;;;15.55;9.13;;;0.30;62.10;;;;;;5076788;28;20032;-52
2021/12/26 06:12:18;;;;;;;17.15;9.63;;;0.30;62.20;;;;;;5084265;28;20032;-54
2021/12/26 06:14:44;;;;;;;13.93;8.80;;;0.30;62.10;;;;;;5097067;28;20020;-55
2021/12/26 06:17:10;;;;;;;14.25;8.85;;;0.30;62.50;;;;;;5082254;28;20113;-57
2021/12/26 06:19:36;;;;;;;14.63;8.73;;;0.30;62.00;;;;;;5085228;28;20074;-52
2021/12/26 06:22:03;;;;;;;12.18;7.72;;;0.30;62.10;;;;;;5095637;28;20031;-55
2021/12/26 06:24:29;;;;;;;10.00;7.60;;;0.40;62.20;;;;;;5087517;28;20052;-52
2021/12/26 06:26:56;;;;;;;13.15;7.75;;;0.30;62.10;;;;;;5094428;28;20036;-55
2021/12/26 06:29:21;;;;;;;14.27;7.55;;;0.40;62.30;;;;;;5095531;28;20455;-54
2021/12/26 06:31:47;;;;;;;11.48;7.43;;;0.30;62.30;;;;;;5096235;28;20131;-55
2021/12/26 06:34:13;;;;;;;11.45;7.22;;;0.30;62.40;;;;;;5091839;28;20078;-56
2021/12/26 06:36:39;;;;;;;9.93;7.15;;;0.30;62.40;;;;;;5088760;28;20415;-55
2021/12/26 06:39:05;;;;;;;11.02;7.22;;;0.40;62.50;;;;;;5075965;28;20100;-54
2021/12/26 06:41:31;;;;;;;11.25;8.02;;;0.30;62.40;;;;;;5075849;28;20021;-54
2021/12/26 06:43:57;;;;;;;9.57;7.20;;;0.40;62.50;;;;;;5076113;28;20074;-52
2021/12/26 06:46:23;;;;;;;11.93;7.93;;;0.40;62.50;;;;;;5090122;28;20047;-55
2021/12/26 06:48:49;;;;;;;12.60;7.95;;;0.40;62.40;;;;;;5096356;28;20024;-53
2021/12/26 06:51:15;;;;;;;11.95;7.53;;;0.40;62.50;;;;;;5091465;28;20508;-56
2021/12/26 06:53:41;;;;;;;13.27;9.05;;;0.40;62.60;;;;;;5094140;28;20089;-56
2021/12/26 06:56:07;;;;;;;15.48;9.68;;;0.40;62.70;;;;;;5095879;28;20020;-53
2021/12/26 06:58:33;;;;;;;16.63;11.98;;;0.40;62.70;;;;;;5075694;28;20476;-55
2021/12/26 07:00:59;;;;;;;13.75;9.82;;;0.40;62.70;;;;;;5077603;28;20039;-56
2021/12/26 07:03:25;;;;;;;14.13;8.77;;;0.40;62.70;;;;;;5095769;28;20051;-55
2021/12/26 07:05:50;;;;;;;13.27;8.30;;;0.40;62.70;;;;;;5095848;28;20031;-54
2021/12/26 07:08:16;;;;;;;10.88;7.80;;;0.40;62.70;;;;;;5078749;28;20036;-54
2021/12/26 07:10:44;;;;;;;10.20;7.90;;;0.50;62.80;;;;;;5086413;28;20035;-56
2021/12/26 07:13:09;;;;;;;10.23;6.95;;;0.50;62.70;;;;;;5076872;28;20024;-55
2021/12/26 07:15:35;;;;;;;9.65;6.95;;;0.50;62.60;;;;;;5075340;28;20021;-54
2021/12/26 07:18:01;;;;;;;9.00;7.07;;;0.50;62.50;;;;;;5079198;28;20030;-56
2021/12/26 07:20:27;;;;;;;11.13;6.40;;;0.50;62.40;;;;;;5095396;28;20024;-55
2021/12/26 07:22:52;;;;;;;11.35;7.07;;;0.50;62.20;;;;;;5094507;28;20044;-53
2021/12/26 07:25:18;;;;;;;11.65;7.53;;;0.50;62.20;;;;;;5090811;28;20369;-56
2021/12/26 07:27:44;;;;;;;10.27;7.60;;;0.50;62.20;;;;;;5087166;28;20028;-53
2021/12/26 07:30:10;;;;;;;10.07;7.25;;;0.50;62.30;;;;;;5075216;28;20476;-56
2021/12/26 07:32:36;;;;;;;10.02;7.65;;;0.50;62.80;;;;;;5080285;28;20467;-56
2021/12/26 07:35:03;;;;;;;14.52;8.20;;;0.50;62.30;;;;;;5095055;28;20024;-56
2021/12/26 07:37:29;;;;;;;11.40;7.90;;;0.50;62.10;;;;;;5095064;28;20062;-53
2021/12/26 07:39:55;;;;;;;12.50;8.15;;;0.50;62.10;;;;;;5095204;28;20468;-54
2021/12/26 07:42:21;;;;;;;10.60;7.50;;;0.50;62.00;;;;;;5093979;28;20052;-54
2021/12/26 07:44:46;;;;;;;11.93;7.70;;;0.50;62.20;;;;;;5093613;28;20046;-56
2021/12/26 07:47:13;;;;;;;11.80;7.82;;;0.50;62.20;;;;;;5074572;28;20028;-56
2021/12/26 07:49:40;;;;;;;9.38;7.50;;;0.50;62.30;;;;;;5092702;28;20151;-54
2021/12/26 07:52:12;;;;;;;12.00;7.78;;;0.50;62.30;;;;;;5094734;28;20047;-55
2021/12/26 07:54:39;;;;;;;10.77;7.05;;;0.50;62.20;;;;;;5094773;28;20021;-55
2021/12/26 07:57:06;;;;;;;11.70;7.50;;;0.50;62.20;;;;;;5094914;28;20360;-53
2021/12/26 07:59:33;;;;;;;11.25;7.65;;;0.50;62.30;;;;;;5088801;28;20353;-55
2021/12/26 08:01:59;;;;;;;11.70;6.78;;;0.60;62.30;;;;;;5085729;28;20035;-52
2021/12/26 08:04:24;;;;;;;9.32;6.93;;;0.60;62.30;;;;;;5076582;28;20032;-55
2021/12/26 08:06:52;;;;;;;10.98;6.97;;;0.60;62.10;;;;;;5091010;28;20028;-56
2021/12/26 08:09:19;;;;;;;11.55;7.50;;;0.70;62.10;;;;;;5081806;28;20032;-56
2021/12/26 08:11:44;;;;;;;11.15;7.80;;;0.60;61.90;;;;;;5073820;28;20024;-54
2021/12/26 08:14:10;;;;;;;9.13;7.13;;;0.70;62.10;;;;;;5075276;28;20023;-57
2021/12/26 08:16:36;;;;;;;9.50;6.70;;;0.70;62.00;;;;;;5083668;28;20016;-52
2021/12/26 08:19:03;;;;;;;9.38;6.68;;;0.70;62.10;;;;;;5087153;28;20032;-57
2021/12/26 08:21:29;;;;;;;9.73;7.13;;;0.80;62.10;;;;;;5075599;28;20032;-57
2021/12/26 08:23:54;;;;;;;10.02;7.25;;;0.80;61.90;;;;;;5091734;28;20055;-56
2021/12/26 08:26:20;;;;;;;9.00;7.13;;;0.90;61.90;;;;;;5077601;28;20029;-56
2021/12/26 08:28:46;;;;;;;10.40;7.28;;;0.90;61.70;;;;;;5072102;28;20028;-55
2021/12/26 08:31:12;;;;;;;10.70;7.28;;;0.90;61.50;;;;;;5072626;28;20020;-57
2021/12/26 08:33:38;;;;;;;10.68;7.50;;;0.90;61.50;;;;;;5076048;28;20044;-55
2021/12/26 08:36:05;;;;;;;10.50;7.72;;;1.00;61.70;;;;;;5084871;28;20093;-56
2021/12/26 08:38:31;;;;;;;9.57;7.18;;;1.00;61.60;;;;;;5072906;28;20020;-56
2021/12/26 08:40:57;;;;;;;11.38;7.65;;;1.00;61.70;;;;;;5091807;28;20092;-57
2021/12/26 08:43:23;;;;;;;9.02;6.63;;;1.00;61.70;;;;;;5081700;28;20044;-53
2021/12/26 08:45:49;;;;;;;9.98;7.05;;;1.00;61.60;;;;;;5090821;28;20067;-56
2021/12/26 08:48:15;;;;;;;10.18;6.85;;;1.10;61.40;;;;;;5092434;28;20024;-56
2021/12/26 08:50:42;;;;;;;8.43;6.38;;;1.10;61.30;;;;;;5089388;28;20030;-57
2021/12/26 08:53:09;;;;;;;8.05;6.35;;;1.10;61.20;;;;;;5078175;28;20012;-54
2021/12/26 08:55:36;;;;;;;9.35;6.60;;;1.10;61.00;;;;;;5085461;28;20078;-57
2021/12/26 08:58:05;;;;;;;8.25;6.13;;;1.10;61.10;;;;;;5078818;28;20028;-55
2021/12/26 09:00:32;;;;;;;8.52;6.28;;;1.10;61.00;;;;;;5072410;28;20066;-54
2021/12/26 09:02:58;;;;;;;8.75;5.70;;;1.00;60.80;;;;;;5073299;28;20054;-57
2021/12/26 09:05:24;;;;;;;7.82;5.72;;;1.00;60.80;;;;;;5073536;28;20017;-56
2021/12/26 09:07:50;;;;;;;8.60;6.13;;;1.00;60.60;;;;;;5075459;28;20056;-56
2021/12/26 09:10:16;;;;;;;8.55;5.65;;;1.00;60.80;;;;;;5093450;28;20024;-54
2021/12/26 09:12:42;;;;;;;8.25;5.90;;;1.00;60.70;;;;;;5087719;28;20032;-57
2021/12/26 09:15:09;;;;;;;8.75;6.25;;;1.00;60.60;;;;;;5085872;28;20020;-52
2021/12/26 09:17:36;;;;;;;8.13;5.82;;;1.00;60.70;;;;;;5088317;28;20100;-54
2021/12/26 09:20:03;;;;;;;6.75;5.10;;;1.00;60.80;;;;;;5082036;28;20095;-56
2021/12/26 09:22:28;;;;;;;7.68;5.47;;;1.10;60.50;;;;;;5077050;28;20043;-55
2021/12/26 09:24:54;;;;;;;7.47;5.10;;;1.10;60.20;;;;;;5078200;28;20028;-56
2021/12/26 09:27:20;;;;;;;9.15;5.18;;;1.10;60.20;;;;;;5095670;28;20043;-55
2021/12/26 09:29:46;;;;;;;9.23;5.47;;;1.10;60.00;;;;;;5097734;28;20035;-52
2021/12/26 09:32:11;;;;;;;9.32;5.63;;;1.10;60.10;;;;;;5088815;28;20032;-53
2021/12/26 09:34:37;;;;;;;6.82;5.30;;;1.20;60.00;;;;;;5096818;28;20024;-56
2021/12/26 09:37:06;;;;;;;6.95;5.10;;;1.20;59.90;;;;;;5097558;28;20107;-54
2021/12/26 09:39:32;;;;;;;8.18;5.68;;;1.20;60.00;;;;;;5078285;28;20031;-56
2021/12/26 09:41:58;;;;;;;7.10;5.43;;;1.20;59.80;;;;;;5078799;28;20040;-53
2021/12/26 09:44:24;;;;;;;8.68;6.00;;;1.20;59.80;;;;;;5095519;28;20028;-55
2021/12/26 09:46:51;;;;;;;8.57;6.15;;;1.30;60.00;;;;;;5097514;28;20028;-56
2021/12/26 09:49:17;;;;;;;7.50;5.80;;;1.30;60.00;;;;;;5097008;28;20032;-53
2021/12/26 09:51:43;;;;;;;8.98;5.93;;;1.40;59.90;;;;;;5086545;28;20078;-57
2021/12/26 09:54:10;;;;;;;8.27;5.90;;;1.40;59.60;;;;;;5095037;28;20399;-52
2021/12/26 09:56:36;;;;;;;8.95;6.07;;;1.40;59.60;;;;;;5097161;28;20023;-55
2021/12/26 09:59:18;;;;;;;8.80;5.97;;;1.40;59.80;;;;;;5083119;28;20055;-57
2021/12/26 10:01:51;;;;;;;9.23;6.15;;;1.40;60.00;;;;;;5097144;28;20063;-53
2021/12/26 10:04:28;;;;;;;9.30;6.00;;;1.50;59.80;;;;;;5097053;28;20694;-56
2021/12/26 10:07:03;;;;;;;10.07;6.55;;;1.50;59.40;;;;;;5096969;28;20073;-56
2021/12/26 10:09:29;;;;;;;9.02;6.47;;;1.60;59.50;;;;;;5094400;28;20334;-56
2021/12/26 10:11:58;;;;;;;6.55;4.78;;;1.50;59.50;;;;;;5096772;28;20051;-57
2021/12/26 10:14:28;;;;;;;7.72;5.18;;;1.60;59.20;;;;;;5091227;28;20372;-57
2021/12/26 10:17:09;;;;;;;5.93;4.03;;;1.60;59.00;;;;;;5084424;28;20456;-55
2021/12/26 10:19:40;;;;;;;7.75;4.45;;;1.60;58.80;;;;;;5076688;28;20086;-54
2021/12/26 10:22:07;;;;;;;5.95;4.60;;;1.60;58.70;;;;;;5076686;28;20028;-54
2021/12/26 10:24:38;;;;;;;6.05;4.50;;;1.50;58.90;;;;;;5094207;28;20050;-56
2021/12/26 10:27:12;;;;;;;7.07;4.47;;;1.50;58.60;;;;;;5091969;28;20058;-55
2021/12/26 10:29:41;;;;;;;7.40;4.72;;;1.60;58.60;;;;;;5085638;28;20103;-56
2021/12/26 10:32:13;;;;;;;6.88;4.57;;;1.60;58.80;;;;;;5084438;28;20111;-53
2021/12/26 10:34:48;;;;;;;8.18;5.10;;;1.60;58.70;;;;;;5095303;28;20111;-55
2021/12/26 10:37:14;;;;;;;8.20;5.22;;;1.60;58.60;;;;;;5096553;28;20119;-54
2021/12/26 10:39:58;;;;;;;6.15;4.75;;;1.60;58.60;;;;;;5096633;28;20055;-56
2021/12/26 10:42:28;;;;;;;7.45;4.15;;;1.70;58.60;;;;;;5094641;28;20056;-57
2021/12/26 10:44:57;;;;;;;6.28;4.22;;;1.70;58.40;;;;;;5075940;28;20032;-57
2021/12/26 10:47:29;;;;;;;7.32;4.15;;;1.60;58.20;;;;;;5088098;28;20051;-55
2021/12/26 10:49:54;;;;;;;5.53;4.00;;;1.70;58.40;;;;;;5078479;28;20029;-55
2021/12/26 10:52:41;;;;;;;7.20;4.30;;;1.70;58.50;;;;;;5084437;28;20052;-55
2021/12/26 10:55:13;;;;;;;8.75;5.03;;;1.80;58.20;;;;;;5075831;28;20035;-55
2021/12/26 10:57:40;;;;;;;8.27;5.30;;;1.80;58.00;;;;;;5075969;28;20024;-55
2021/12/26 11:00:18;;;;;;;6.95;4.85;;;1.80;57.70;;;;;;5084069;28;20024;-56
2021/12/26 11:02:51;;;;;;;6.05;4.40;;;1.80;57.60;;;;;;5090614;28;20081;-53
2021/12/26 11:05:21;;;;;;;6.85;4.30;;;1.90;57.40;;;;;;5075537;28;20067;-56
2021/12/26 11:07:49;;;;;;;7.20;4.53;;;1.90;57.40;;;;;;5081255;28;20028;-52
2021/12/26 11:10:19;;;;;;;8.27;4.57;;;1.80;57.10;;;;;;5095872;28;20028;-52
2021/12/26 11:13:05;;;;;;;7.63;4.38;;;1.80;57.40;;;;;;5095755;28;20061;-53
2021/12/26 11:15:37;;;;;;;6.35;4.75;;;1.80;57.30;;;;;;5091031;28;20025;-53
2021/12/26 11:18:07;;;;;;;6.38;4.50;;;1.90;57.50;;;;;;5076811;28;20385;-54
2021/12/26 11:20:36;;;;;;;7.85;4.43;;;1.90;57.20;;;;;;5087243;28;20475;-55
2021/12/26 11:23:09;;;;;;;4.80;3.58;;;1.90;57.00;;;;;;5076705;28;20040;-53
2021/12/26 11:25:40;;;;;;;5.88;3.83;;;1.90;56.80;;;;;;5088118;28;20535;-52
2021/12/26 11:28:06;;;;;;;5.72;3.97;;;1.90;56.30;;;;;;5075958;28;20023;-56
2021/12/26 11:30:32;;;;;;;8.13;4.38;;;1.90;56.30;;;;;;5073995;28;20037;-57
2021/12/26 11:32:59;;;;;;;6.63;4.43;;;1.90;56.50;;;;;;5078646;28;20445;-55
2021/12/26 11:35:28;;;;;;;7.50;4.13;;;1.90;56.30;;;;;;5074086;28;20059;-56
2021/12/26 11:37:55;;;;;;;12.27;5.10;;;1.80;56.40;;;;;;5078193;28;20028;-55
2021/12/26 11:40:21;;;;;;;6.93;4.63;;;1.80;56.40;;;;;;5082986;28;20446;-53
2021/12/26 11:43:31;;;;;;;6.10;3.95;;;1.80;56.30;;;;;;5072979;28;20021;-52
2021/12/26 11:46:14;;;;;;;6.45;3.88;;;1.80;56.40;;;;;;5085542;28;20028;-56
2021/12/26 11:48:55;;;;;;;5.07;3.70;;;1.80;56.30;;;;;;5095115;28;20118;-57
2021/12/26 11:51:33;;;;;;;5.63;3.38;;;1.80;56.30;;;;;;5094440;28;20360;-54
2021/12/26 11:54:21;;;;;;;6.25;3.40;;;1.80;56.00;;;;;;5086850;28;20059;-55
2021/12/26 11:56:58;;;;;;;6.10;3.83;;;1.80;56.00;;;;;;5086190;28;20069;-54
2021/12/26 11:59:34;;;;;;;9.30;4.72;;;1.70;56.00;;;;;;5090960;28;20038;-56
2021/12/26 12:01:59;;;;;;;7.30;4.68;;;1.70;56.20;;;;;;5091410;28;20048;-57
2021/12/26 12:04:26;;;;;;;6.10;4.32;;;1.70;55.90;;;;;;5088395;28;20059;-56
2021/12/26 12:06:55;;;;;;;5.00;3.90;;;1.70;56.00;;;;;;5079570;28;20020;-56
2021/12/26 12:09:32;;;;;;;7.65;4.47;;;1.80;56.10;;;;;;5083484;28;20037;-56
2021/12/26 12:12:03;;;;;;;6.53;4.07;;;1.80;56.00;;;;;;5083961;28;20496;-53
2021/12/26 12:14:55;;;;;;;5.30;3.65;;;1.90;56.10;;;;;;5075419;28;20100;-52
2021/12/26 12:17:27;;;;;;;6.30;3.70;;;1.90;55.70;;;;;;5082514;28;20691;-57
2021/12/26 12:20:20;;;;;;;7.53;4.20;;;1.90;55.50;;;;;;5075733;28;20017;-55
2021/12/26 12:23:04;;;;;;;5.13;3.65;;;1.90;55.20;;;;;;5074773;28;20187;-57
2021/12/26 12:25:36;;;;;;;5.43;3.60;;;1.90;55.00;;;;;;5074043;28;20086;-55
2021/12/26 12:28:08;;;;;;;4.88;3.60;;;1.90;55.00;;;;;;5077607;28;20050;-57
2021/12/26 12:30:35;;;;;;;7.28;3.92;;;1.80;55.10;;;;;;5088862;28;20060;-56
2021/12/26 12:33:15;;;;;;;5.53;3.72;;;1.80;55.30;;;;;;5080864;28;20021;-56
2021/12/26 12:36:05;;;;;;;4.88;3.55;;;1.70;55.30;;;;;;5072483;28;20074;-56
2021/12/26 12:38:40;;;;;;;5.95;3.75;;;1.80;55.30;;;;;;5075739;28;20035;-55
2021/12/26 12:41:32;;;;;;;8.70;3.70;;;1.70;55.20;;;;;;5082029;28;20402;-56
2021/12/26 12:44:02;;;;;;;6.57;4.55;;;1.70;55.20;;;;;;5079418;28;20047;-56
2021/12/26 12:46:28;;;;;;;7.97;4.50;;;1.70;55.40;;;;;;5093749;28;20020;-56
2021/12/26 12:49:00;;;;;;;8.18;5.10;;;1.70;55.40;;;;;;5082637;28;20037;-57
2021/12/26 12:51:26;;;;;;;9.32;5.63;;;1.80;55.50;;;;;;5076875;28;20025;-56
2021/12/26 12:53:55;;;;;;;7.80;5.88;;;1.80;55.50;;;;;;5091709;28;20024;-56
2021/12/26 12:56:36;;;;;;;8.73;5.90;;;1.80;55.50;;;;;;5085098;28;20052;-53
2021/12/26 12:59:14;;;;;;;10.15;6.65;;;1.90;55.40;;;;;;5081732;28;20475;-54
2021/12/26 13:01:41;;;;;;;7.47;5.50;;;1.90;55.40;;;;;;5090285;28;20116;-54